»·PEaware :: N364CM KBUR-KFUL

N364CM :: KBUR-KFUL

FLIGHT INFORMATION

Flight Status: Arrived
Operator: Privately registered:
United States
More flights under this callsign
Pilot: Brian S. (32023)
Aircraft: CESSNA 172 SKYHAWK
(C172)
More flights by this aircraft type
Origin: KBUR Bob Hope-Burbank
United States
Destination: KFUL Fullerton Mun
United States
More flights between these airports :: More routes between these airports
Route: VPLRB KEMT
File this flight plan on PilotEdge
Remarks:
Altitude:
(Current/Filed)
3,500ft
Speed:
(Current/Filed)
125kts
Departed: 14-Jan-21 04:42 PM
Arrived: 14-Jan-21 05:01 PM
Distance/Time
Traveled:
27nm/0:19
Distance/Time
To Go:
Arrived

Flight Plot

Page will automatically refresh every two minutes.

Flight plan parsing failed; only flown route is shown


Map Options




Map Legend


Flown Route
Filed Route
Departure Airport
Arrival Airport
Navaid (VOR, NDB)
Fix

Horizontal Profiles

Position Reports

Time Latitude Longitude Heading Altitude Ground
Speed
14-Jan-21 16:22 34.200257 -118.362797 220 733ft 0kts
14-Jan-21 16:23 34.200257 -118.362797 220 733ft 0kts
14-Jan-21 16:24 34.200257 -118.362797 220 733ft 0kts
14-Jan-21 16:25 34.200257 -118.362797 220 733ft 0kts
14-Jan-21 16:26 34.200257 -118.362797 220 733ft 0kts
14-Jan-21 16:27 34.200257 -118.362797 220 733ft 0kts
14-Jan-21 16:28 34.200257 -118.362797 220 733ft 0kts
14-Jan-21 16:29 34.200257 -118.362797 220 733ft 0kts
14-Jan-21 16:30 34.200257 -118.362797 220 733ft 0kts
14-Jan-21 16:31 34.200257 -118.362797 220 733ft 0kts
14-Jan-21 16:32 34.200257 -118.362797 220 733ft 0kts
14-Jan-21 16:33 34.200257 -118.362797 220 733ft 0kts
14-Jan-21 16:34 34.200257 -118.362797 220 733ft 0kts
14-Jan-21 16:35 34.200257 -118.362797 220 733ft 0kts
14-Jan-21 16:36 34.200257 -118.362797 220 733ft 0kts
14-Jan-21 16:37 34.200257 -118.362797 220 733ft 0kts
14-Jan-21 16:38 34.200124 -118.363417 265 733ft 9kts
14-Jan-21 16:39 34.199103 -118.366540 270 732ft 11kts
14-Jan-21 16:40 34.198419 -118.369012 181 732ft 9kts
14-Jan-21 16:41 34.197706 -118.358766 90 844ft 79kts
14-Jan-21 16:42 34.196186 -118.334628 105 2010ft 72kts
14-Jan-21 16:43 34.191174 -118.311100 104 3056ft 73kts
14-Jan-21 16:44 34.184201 -118.278632 104 3331ft 128kts
14-Jan-21 16:45 34.175564 -118.238681 104 3325ft 117kts
14-Jan-21 16:46 34.167390 -118.200831 104 3326ft 116kts
14-Jan-21 16:47 34.158902 -118.163098 119 3316ft 117kts
14-Jan-21 16:48 34.139427 -118.132259 124 3326ft 116kts
14-Jan-21 16:49 34.120923 -118.100249 124 3326ft 116kts
14-Jan-21 16:50 34.102839 -118.067855 121 3326ft 116kts
14-Jan-21 16:51 34.085734 -118.034682 121 3326ft 116kts
14-Jan-21 16:52 34.056252 -118.022739 169 3326ft 116kts
14-Jan-21 16:53 34.024476 -118.015450 169 3335ft 116kts
14-Jan-21 16:54 33.992767 -118.008174 169 3335ft 116kts
14-Jan-21 16:56 33.959296 -118.000493 169 2939ft 133kts
14-Jan-21 16:57 33.929173 -117.989101 145 1922ft 102kts
14-Jan-21 16:58 33.910616 -117.970385 150 1250ft 79kts
14-Jan-21 16:59 33.890924 -117.955508 152 906ft 84kts
14-Jan-21 17:00 33.873791 -117.970447 256 239ft 76kts
14-Jan-21 17:01 33.871165 -117.983214 253 91ft 2kts
14-Jan-21 17:02 33.870978 -117.983054 83 91ft 2kts
14-Jan-21 17:03 33.870884 -117.981299 355 94ft 0kts
14-Jan-21 17:04 33.870884 -117.981299 355 94ft 0kts
14-Jan-21 17:05 33.870884 -117.981299 355 94ft 0kts
14-Jan-21 17:06 33.870884 -117.981299 355 94ft 0kts
14-Jan-21 17:07 33.870884 -117.981299 355 94ft 0kts
14-Jan-21 17:08 33.870884 -117.981299 355 94ft 0kts
14-Jan-21 17:09 33.870884 -117.981299 355 94ft 0kts
14-Jan-21 17:09 33.870884 -117.981299 355 94ft 0kts
14-Jan-21 17:11 33.870884 -117.981299 355 94ft 0kts
14-Jan-21 17:12 33.870884 -117.981299 355 94ft 0kts
14-Jan-21 17:12 33.870884 -117.981299 355 94ft 0kts
14-Jan-21 17:13 33.870884 -117.981299 355 94ft 0kts
14-Jan-21 17:15 33.870884 -117.981299 355 94ft 0kts

Navigation Log

Ident Type
Flight plan parsing failed, navigation log unavailable